createdAt,value
2018-11-21T00:02:49.007Z,97376.95
2018-11-21T00:07:51.745Z,97379.53
2018-11-21T00:12:56.160Z,97383.91
2018-11-21T00:17:58.914Z,97381.02
2018-11-21T00:23:01.570Z,97381.89
2018-11-21T00:28:04.418Z,97378.66
2018-11-21T00:33:07.042Z,97376.48
2018-11-21T00:38:09.679Z,97378.61
2018-11-21T00:43:12.321Z,97376.93
2018-11-21T00:48:14.964Z,97372.52
2018-11-21T00:53:17.620Z,97376.33
2018-11-21T00:58:20.242Z,97367.47
2018-11-21T01:03:22.884Z,97378.55
2018-11-21T01:08:25.543Z,97387.88
2018-11-21T01:13:28.154Z,97400.11
2018-11-21T01:18:30.846Z,97407.38
2018-11-21T01:23:33.502Z,97398.69
2018-11-21T01:28:36.136Z,97406.43
2018-11-21T01:33:38.759Z,97406.51
2018-11-21T01:38:41.471Z,97411.44
2018-11-21T01:43:44.100Z,97419.45
2018-11-21T01:48:46.727Z,97431.51
2018-11-21T01:53:49.342Z,97438.00
2018-11-21T01:58:52.014Z,97442.19
2018-11-21T02:03:54.619Z,97444.80
2018-11-21T02:08:57.282Z,97446.12
2018-11-21T02:13:59.930Z,97446.68
2018-11-21T02:19:02.757Z,97446.52
2018-11-21T02:24:05.394Z,97446.52
2018-11-21T02:29:08.031Z,97448.03
2018-11-21T02:34:10.645Z,97447.31
2018-11-21T02:39:13.355Z,97447.19
2018-11-21T02:44:15.989Z,97450.23
2018-11-21T02:49:18.594Z,97461.14
2018-11-21T02:54:21.252Z,97475.42
2018-11-21T02:59:23.890Z,97476.45
2018-11-21T03:04:26.935Z,97472.34
2018-11-21T03:09:29.612Z,97472.09
2018-11-21T03:14:32.238Z,97483.83
2018-11-21T03:19:34.866Z,97486.55
2018-11-21T03:24:37.690Z,97491.97
2018-11-21T03:29:40.287Z,97496.02
2018-11-21T03:34:42.924Z,97491.58
2018-11-21T03:39:45.579Z,97479.53
2018-11-21T03:44:48.200Z,97482.27
2018-11-21T03:49:50.850Z,97478.70
2018-11-21T03:54:53.501Z,97498.15
2018-11-21T03:59:56.138Z,97508.34
2018-11-21T04:04:58.747Z,97506.89
2018-11-21T04:10:01.570Z,97504.67
2018-11-21T04:15:06.680Z,97508.80
2018-11-21T04:20:09.512Z,97511.64
2018-11-21T04:25:12.101Z,97507.04
2018-11-21T04:30:14.721Z,97510.59
2018-11-21T04:35:17.446Z,97512.56
2018-11-21T04:40:20.066Z,97506.80
2018-11-21T04:45:22.695Z,97498.88
2018-11-21T04:50:25.322Z,97511.31
2018-11-21T04:55:27.961Z,97515.02
2018-11-21T05:00:30.563Z,97518.81
2018-11-21T05:05:33.176Z,97531.59
2018-11-21T05:10:35.796Z,97527.12
2018-11-21T05:15:38.444Z,97539.84
2018-11-21T05:20:41.118Z,97536.61
2018-11-21T05:25:43.824Z,97545.58
2018-11-21T05:30:46.524Z,97550.23
2018-11-21T05:35:49.179Z,97555.72
2018-11-21T05:40:51.845Z,97573.08
2018-11-21T05:45:56.391Z,97571.18
2018-11-21T05:50:59.044Z,97594.88
2018-11-21T05:56:01.750Z,97614.88
2018-11-21T06:01:04.643Z,97627.60
2018-11-21T06:06:10.101Z,97636.76
2018-11-21T06:11:09.907Z,97649.64
2018-11-21T06:16:12.541Z,97650.52
2018-11-21T06:21:15.212Z,97659.63
2018-11-21T06:26:17.815Z,97670.26
2018-11-21T06:31:20.710Z,97690.03
2018-11-21T06:36:23.369Z,97711.58
2018-11-21T06:41:25.996Z,97717.11
2018-11-21T06:46:28.751Z,97729.83
2018-11-21T06:51:35.220Z,97727.98
2018-11-21T06:56:34.086Z,97737.55
2018-11-21T07:01:37.108Z,97735.22
2018-11-21T07:06:39.721Z,97730.02
2018-11-21T07:11:43.367Z,97725.30
2018-11-21T07:16:46.093Z,97729.36
2018-11-21T07:21:50.110Z,97741.06
2018-11-21T07:26:52.788Z,97747.52
2018-11-21T07:31:55.496Z,97750.71
2018-11-21T07:36:58.172Z,97767.34
2018-11-21T07:42:00.808Z,97759.48
2018-11-21T07:47:03.440Z,97756.30
2018-11-21T07:52:06.131Z,97762.98
2018-11-21T07:57:33.398Z,97768.64
2018-11-21T08:02:38.117Z,97776.03
2018-11-21T08:07:48.998Z,97771.09
2018-11-21T08:13:26.177Z,97768.59
2018-11-21T08:18:39.649Z,97779.58
2018-11-21T08:24:01.832Z,97792.27
2018-11-21T08:29:04.530Z,97792.95
2018-11-21T08:34:07.180Z,97795.09
2018-11-21T08:39:10.174Z,97798.47
2018-11-21T08:44:12.892Z,97800.88
2018-11-21T08:49:15.559Z,97790.94
2018-11-21T08:54:37.713Z,97799.80
2018-11-21T08:59:59.865Z,97811.64
2018-11-21T09:05:22.050Z,97813.09
2018-11-21T09:10:44.229Z,97817.73
2018-11-21T09:16:06.389Z,97820.00
2018-11-21T09:21:28.579Z,97824.34
2018-11-21T09:26:50.749Z,97826.63
2018-11-21T09:32:12.903Z,97831.52
2018-11-21T09:37:35.083Z,97834.16
2018-11-21T09:42:57.262Z,97831.06
2018-11-21T09:48:19.410Z,97823.94
2018-11-21T09:53:41.580Z,97835.75
2018-11-21T09:59:03.819Z,97842.31
2018-11-21T10:04:25.976Z,97845.49
2018-11-21T10:09:49.530Z,97851.31
2018-11-21T10:15:11.695Z,97839.16
2018-11-21T10:20:33.867Z,97844.45
2018-11-21T10:25:56.033Z,97855.80
2018-11-21T10:31:18.204Z,97851.11
2018-11-21T10:36:40.367Z,97865.93
2018-11-21T10:42:02.545Z,97860.83
2018-11-21T10:47:24.715Z,97868.78
2018-11-21T10:52:46.898Z,97869.56
2018-11-21T10:58:09.053Z,97857.92
2018-11-21T11:03:36.466Z,97858.33
2018-11-21T11:09:18.200Z,97864.49
2018-11-21T11:14:59.910Z,97854.77
2018-11-21T11:20:41.612Z,97860.20
2018-11-21T11:26:23.361Z,97854.42
2018-11-21T11:32:05.245Z,97848.56
2018-11-21T11:37:46.950Z,97853.23
2018-11-21T11:43:28.690Z,97845.14
2018-11-21T11:49:10.398Z,97866.27
2018-11-21T11:54:52.119Z,97884.47
2018-11-21T12:00:33.812Z,97880.66
2018-11-21T12:06:15.580Z,97880.66
2018-11-21T12:11:57.306Z,97891.19
2018-11-21T12:17:39.003Z,97884.53
2018-11-21T12:23:12.811Z,97877.83
2018-11-21T12:28:54.520Z,97893.80
2018-11-21T12:34:36.235Z,97887.02
2018-11-21T12:40:17.951Z,97897.95
2018-11-21T12:45:59.669Z,97896.98
2018-11-21T12:51:41.376Z,97900.01
2018-11-21T12:57:23.101Z,97888.50
2018-11-21T13:03:04.825Z,97886.45
2018-11-21T13:08:46.522Z,97888.23
2018-11-21T13:14:28.227Z,97878.28
2018-11-21T13:20:09.926Z,97878.48
2018-11-21T13:25:51.678Z,97885.04
2018-11-21T13:31:33.389Z,97898.69
2018-11-21T13:37:15.116Z,97907.55
2018-11-21T13:42:56.836Z,97918.41
2018-11-21T13:48:38.538Z,97916.65
2018-11-21T13:54:20.248Z,97919.59
2018-11-21T13:59:42.482Z,97919.47
2018-11-21T14:05:06.898Z,97930.86
2018-11-21T14:10:29.114Z,97939.41
2018-11-21T14:15:51.278Z,97955.05
2018-11-21T14:21:13.475Z,97959.97
2018-11-21T14:26:35.657Z,97958.63
2018-11-21T14:31:57.845Z,97964.44
2018-11-21T14:37:20.093Z,97983.02
2018-11-21T14:42:42.525Z,97982.14
2018-11-21T14:48:05.109Z,97997.56
2018-11-21T14:53:27.320Z,98000.09
2018-11-21T14:58:49.514Z,98005.63
2018-11-21T15:04:11.707Z,98009.19
2018-11-21T15:09:33.939Z,98019.14
2018-11-21T15:14:56.145Z,98028.11
2018-11-21T15:20:20.302Z,98038.55
2018-11-21T15:25:42.481Z,98045.89
2018-11-21T15:31:04.921Z,98048.11
2018-11-21T15:36:27.138Z,98058.20
2018-11-21T15:41:49.290Z,98057.80
2018-11-21T15:47:11.496Z,98069.42
2018-11-21T15:52:34.549Z,98077.73
2018-11-21T15:57:56.826Z,98080.78
2018-11-21T16:03:19.032Z,98079.19
2018-11-21T16:08:41.253Z,98080.83
2018-11-21T16:14:03.791Z,98084.36
2018-11-21T16:19:25.979Z,98088.41
2018-11-21T16:24:48.187Z,98092.20
2018-11-21T16:30:12.577Z,98093.95
2018-11-21T16:35:34.808Z,98092.92
2018-11-21T16:40:57.019Z,98108.87
2018-11-21T16:46:19.240Z,98114.62
2018-11-21T16:51:41.504Z,98123.42
2018-11-21T16:57:03.706Z,98117.44
2018-11-21T17:02:25.902Z,98129.45
2018-11-21T17:07:48.282Z,98129.16
2018-11-21T17:13:10.483Z,98131.38
2018-11-21T17:18:32.699Z,98127.74
2018-11-21T17:23:54.923Z,98126.91
2018-11-21T17:29:17.105Z,98125.13
2018-11-21T17:34:39.367Z,98115.68
2018-11-21T17:40:01.604Z,98125.23
2018-11-21T17:45:05.824Z,98131.59
2018-11-21T17:50:13.883Z,98135.66
2018-11-21T17:55:18.717Z,98136.97
2018-11-21T18:00:23.032Z,98139.92
2018-11-21T18:05:31.380Z,98150.03
2018-11-21T18:10:35.706Z,98151.34
2018-11-21T18:15:38.439Z,98156.45
2018-11-21T18:20:41.274Z,98164.23
2018-11-21T18:25:45.354Z,98167.75
2018-11-21T18:30:48.140Z,98171.00
2018-11-21T18:35:50.849Z,98168.20
2018-11-21T18:40:53.727Z,98168.03
2018-11-21T18:45:56.512Z,98167.09
2018-11-21T18:50:59.319Z,98177.52
2018-11-21T18:56:45.529Z,98179.28
2018-11-21T19:01:47.532Z,98181.70
2018-11-21T19:06:50.441Z,98175.98
2018-11-21T19:11:53.222Z,98192.13
2018-11-21T19:16:56.068Z,98193.98
2018-11-21T19:21:58.831Z,98195.52
2018-11-21T19:27:01.783Z,98196.68
2018-11-21T19:32:04.876Z,98190.25
2018-11-21T19:37:07.614Z,98196.55
2018-11-21T19:42:10.543Z,98195.19
2018-11-21T19:47:13.414Z,98200.73
2018-11-21T19:52:16.160Z,98195.75
2018-11-21T19:57:18.885Z,98202.28
2018-11-21T20:02:21.820Z,98200.13
2018-11-21T20:07:24.640Z,98196.92
2018-11-21T20:12:27.362Z,98198.73
2018-11-21T20:17:30.208Z,98197.79
2018-11-21T20:22:33.048Z,98195.83
2018-11-21T20:27:35.785Z,98194.34
2018-11-21T20:32:38.812Z,98200.83
2018-11-21T20:37:42.194Z,98199.20
2018-11-21T20:42:45.510Z,98199.57
2018-11-21T20:47:49.455Z,98202.14
2018-11-21T20:52:52.625Z,98200.84
2018-11-21T20:57:55.449Z,98201.73
2018-11-21T21:02:58.189Z,98195.80
2018-11-21T21:08:00.964Z,98201.22
2018-11-21T21:13:03.709Z,98201.77
2018-11-21T21:18:06.443Z,98204.73
2018-11-21T21:23:09.119Z,98198.92
2018-11-21T21:28:11.850Z,98205.28
2018-11-21T21:33:14.600Z,98206.20
2018-11-21T21:38:17.365Z,98208.41
2018-11-21T21:43:20.138Z,98202.53
2018-11-21T21:48:22.817Z,98200.19
2018-11-21T21:53:25.676Z,98207.38
2018-11-21T21:58:28.421Z,98200.45
2018-11-21T22:03:31.130Z,98198.75
2018-11-21T22:08:33.811Z,98200.69
2018-11-21T22:13:36.536Z,98205.67
2018-11-21T22:18:39.209Z,98203.65
2018-11-21T22:23:41.869Z,98207.05
2018-11-21T22:28:44.566Z,98209.20
2018-11-21T22:33:47.320Z,98205.61
2018-11-21T22:38:49.996Z,98210.46
2018-11-21T22:43:52.750Z,98213.04
2018-11-21T22:48:55.449Z,98211.63
2018-11-21T22:53:58.119Z,98217.33
2018-11-21T22:59:00.937Z,98216.55
2018-11-21T23:04:04.003Z,98211.02
2018-11-21T23:09:08.863Z,98214.79
2018-11-21T23:14:11.601Z,98211.61
2018-11-21T23:19:14.293Z,98225.52
2018-11-21T23:24:16.946Z,98224.23
2018-11-21T23:29:19.669Z,98222.05
2018-11-21T23:34:22.614Z,98223.04
2018-11-21T23:39:25.246Z,98224.30
2018-11-21T23:44:47.403Z,98226.14
2018-11-21T23:50:11.056Z,98226.25
2018-11-21T23:55:33.196Z,98221.32
